createdAt,value
2023-05-19T00:01:19.923Z,95865.06
2023-05-19T00:03:54.588Z,95861.75
2023-05-19T00:06:26.083Z,95858.72
2023-05-19T00:08:59.955Z,95856.50
2023-05-19T00:11:27.724Z,95856.50
2023-05-19T00:13:56.007Z,95854.06
2023-05-19T00:16:24.556Z,95858.59
2023-05-19T00:18:52.098Z,95858.03
2023-05-19T00:21:19.426Z,95858.47
2023-05-19T00:23:46.445Z,95857.34
2023-05-19T00:26:13.423Z,95859.75
2023-05-19T00:28:40.335Z,95855.88
2023-05-19T00:31:07.321Z,95854.00
2023-05-19T00:33:34.430Z,95851.19
2023-05-19T00:36:05.969Z,95846.19
2023-05-19T00:38:34.493Z,95854.25
2023-05-19T00:41:02.039Z,95852.03
2023-05-19T00:43:30.383Z,95848.09
2023-05-19T00:45:57.821Z,95852.56
2023-05-19T00:48:25.688Z,95838.06
2023-05-19T00:50:55.034Z,95845.19
2023-05-19T00:53:21.680Z,95841.84
2023-05-19T00:55:48.683Z,95847.66
2023-05-19T00:58:15.614Z,95845.69
2023-05-19T01:00:43.719Z,95832.66
2023-05-19T01:03:13.736Z,95842.41
2023-05-19T01:05:41.934Z,95832.66
2023-05-19T01:08:09.247Z,95845.03
2023-05-19T01:10:36.263Z,95829.22
2023-05-19T01:13:04.798Z,95831.59
2023-05-19T01:15:36.204Z,95838.31
2023-05-19T01:18:11.794Z,95821.41
2023-05-19T01:20:53.475Z,95818.38
2023-05-19T01:23:42.078Z,95819.91
2023-05-19T01:26:15.258Z,95822.88
2023-05-19T01:28:44.748Z,95820.97
2023-05-19T01:31:12.100Z,95826.06
2023-05-19T01:33:40.194Z,95822.22
2023-05-19T01:36:07.715Z,95820.00
2023-05-19T01:38:35.335Z,95811.63
2023-05-19T01:41:04.125Z,95816.97
2023-05-19T01:43:30.978Z,95818.84
2023-05-19T01:45:59.071Z,95818.25
2023-05-19T01:48:26.379Z,95818.16
2023-05-19T01:50:53.242Z,95814.25
2023-05-19T01:53:20.186Z,95815.00
2023-05-19T01:55:50.368Z,95806.56
2023-05-19T01:58:29.238Z,95814.41
2023-05-19T02:01:05.251Z,95812.19
2023-05-19T02:03:39.040Z,95814.56
2023-05-19T02:06:30.169Z,95825.31
2023-05-19T02:09:25.084Z,95818.28
2023-05-19T02:12:33.264Z,95815.63
2023-05-19T02:15:11.643Z,95809.53
2023-05-19T02:17:48.246Z,95814.34
2023-05-19T02:20:15.752Z,95814.72
2023-05-19T02:22:42.770Z,95823.31
2023-05-19T02:25:10.508Z,95816.03
2023-05-19T02:27:39.013Z,95814.88
2023-05-19T02:30:06.986Z,95819.94
2023-05-19T02:32:34.363Z,95823.44
2023-05-19T02:35:01.289Z,95821.56
2023-05-19T02:37:31.370Z,95826.16
2023-05-19T02:39:58.573Z,95819.13
2023-05-19T02:42:25.439Z,95815.81
2023-05-19T02:44:55.164Z,95818.66
2023-05-19T02:47:22.377Z,95816.66
2023-05-19T02:49:49.730Z,95816.28
2023-05-19T02:52:16.611Z,95815.94
2023-05-19T02:54:43.908Z,95818.91
2023-05-19T02:57:11.449Z,95814.91
2023-05-19T02:59:38.474Z,95818.19
2023-05-19T03:02:05.436Z,95812.56
2023-05-19T03:04:32.320Z,95808.09
2023-05-19T03:06:59.219Z,95805.28
2023-05-19T03:09:26.217Z,95804.13
2023-05-19T03:11:53.026Z,95813.28
2023-05-19T03:14:24.355Z,95804.59
2023-05-19T03:16:51.702Z,95808.56
2023-05-19T03:19:19.261Z,95810.47
2023-05-19T03:21:46.859Z,95811.53
2023-05-19T03:24:14.141Z,95813.16
2023-05-19T03:26:42.390Z,95809.41
2023-05-19T03:29:09.335Z,95810.47
2023-05-19T03:31:36.327Z,95809.97
2023-05-19T03:34:03.916Z,95806.25
2023-05-19T03:36:40.169Z,95805.19
2023-05-19T03:39:07.212Z,95810.13
2023-05-19T03:41:34.381Z,95800.94
2023-05-19T03:44:01.927Z,95807.75
2023-05-19T03:46:28.944Z,95815.03
2023-05-19T03:48:56.320Z,95813.97
2023-05-19T03:51:23.338Z,95812.00
2023-05-19T03:53:50.304Z,95818.91
2023-05-19T03:56:18.749Z,95820.06
2023-05-19T03:58:47.616Z,95817.72
2023-05-19T04:01:14.652Z,95824.53
2023-05-19T04:03:41.826Z,95819.94
2023-05-19T04:06:09.297Z,95810.06
2023-05-19T04:08:36.447Z,95822.41
2023-05-19T04:11:03.388Z,95819.97
2023-05-19T04:13:33.318Z,95824.59
2023-05-19T04:16:00.495Z,95814.59
2023-05-19T04:18:29.022Z,95827.88
2023-05-19T04:20:56.417Z,95824.72
2023-05-19T04:23:23.320Z,95826.84
2023-05-19T04:25:50.295Z,95829.09
2023-05-19T04:28:18.199Z,95821.00
2023-05-19T04:30:46.926Z,95821.91
2023-05-19T04:33:14.213Z,95823.38
2023-05-19T04:35:41.312Z,95816.53
2023-05-19T04:38:10.558Z,95811.00
2023-05-19T04:40:37.692Z,95830.72
2023-05-19T04:43:04.718Z,95829.91
2023-05-19T04:45:33.335Z,95831.72
2023-05-19T04:48:00.314Z,95825.06
2023-05-19T04:50:28.872Z,95823.06
2023-05-19T04:52:56.103Z,95828.00
2023-05-19T04:55:23.232Z,95822.00
2023-05-19T04:57:51.252Z,95828.47
2023-05-19T05:00:19.488Z,95838.41
2023-05-19T05:02:46.746Z,95832.22
2023-05-19T05:05:13.794Z,95840.81
2023-05-19T05:07:40.909Z,95842.22
2023-05-19T05:10:09.095Z,95831.72
2023-05-19T05:12:36.470Z,95835.41
2023-05-19T05:15:05.290Z,95835.94
2023-05-19T05:17:34.013Z,95833.44
2023-05-19T05:20:02.497Z,95837.34
2023-05-19T05:22:30.340Z,95826.25
2023-05-19T05:24:57.718Z,95835.84
2023-05-19T05:27:24.871Z,95838.44
2023-05-19T05:29:53.159Z,95832.84
2023-05-19T05:32:20.597Z,95839.13
2023-05-19T05:34:47.823Z,95833.84
2023-05-19T05:37:15.552Z,95835.28
2023-05-19T05:39:42.712Z,95829.75
2023-05-19T05:42:11.251Z,95825.84
2023-05-19T05:44:38.493Z,95820.25
2023-05-19T05:47:06.267Z,95836.44
2023-05-19T05:49:37.080Z,95829.25
2023-05-19T05:52:06.566Z,95819.94
2023-05-19T05:54:34.431Z,95820.81
2023-05-19T05:57:02.773Z,95819.50
2023-05-19T05:59:30.296Z,95811.81
2023-05-19T06:01:57.588Z,95819.41
2023-05-19T06:04:26.532Z,95822.69
2023-05-19T06:06:54.338Z,95819.31
2023-05-19T06:09:21.663Z,95810.66
2023-05-19T06:11:49.200Z,95812.91
2023-05-19T06:14:16.394Z,95807.28
2023-05-19T06:16:43.629Z,95821.78
2023-05-19T06:19:10.623Z,95813.31
2023-05-19T06:21:37.715Z,95814.31
2023-05-19T06:24:05.253Z,95831.13
2023-05-19T06:26:32.668Z,95833.34
2023-05-19T06:29:00.019Z,95834.09
2023-05-19T06:31:28.806Z,95832.91
2023-05-19T06:33:56.278Z,95823.72
2023-05-19T06:36:24.785Z,95834.28
2023-05-19T06:38:52.278Z,95831.66
2023-05-19T06:41:19.856Z,95829.53
2023-05-19T06:43:46.892Z,95829.56
2023-05-19T06:46:14.206Z,95831.19
2023-05-19T06:48:41.556Z,95830.66
2023-05-19T06:51:10.494Z,95830.09
2023-05-19T06:53:37.500Z,95834.94
2023-05-19T06:56:04.939Z,95818.06
2023-05-19T06:58:32.102Z,95816.31
2023-05-19T07:00:59.284Z,95838.50
2023-05-19T07:03:27.770Z,95835.56
2023-05-19T07:05:54.915Z,95827.56
2023-05-19T07:08:22.081Z,95820.97
2023-05-19T07:10:49.238Z,95812.81
2023-05-19T07:13:16.682Z,95825.88
2023-05-19T07:15:43.987Z,95817.63
2023-05-19T07:18:11.060Z,95826.25
2023-05-19T07:20:38.109Z,95818.09
2023-05-19T07:23:05.675Z,95831.31
2023-05-19T07:25:33.576Z,95832.75
2023-05-19T07:28:01.121Z,95836.22
2023-05-19T07:30:28.817Z,95842.31
2023-05-19T07:32:56.018Z,95828.47
2023-05-19T07:35:23.125Z,95829.31
2023-05-19T07:37:50.349Z,95824.94
2023-05-19T07:40:17.409Z,95830.97
2023-05-19T07:42:45.143Z,95821.53
2023-05-19T07:45:12.261Z,95814.78
2023-05-19T07:47:39.197Z,95825.25
2023-05-19T07:50:06.806Z,95818.31
2023-05-19T07:52:34.174Z,95822.34
2023-05-19T07:55:01.289Z,95821.03
2023-05-19T07:57:28.271Z,95814.28
2023-05-19T07:59:55.343Z,95814.38
2023-05-19T08:02:22.434Z,95809.50
2023-05-19T08:04:49.644Z,95810.59
2023-05-19T08:07:16.625Z,95806.28
2023-05-19T08:09:43.848Z,95794.22
2023-05-19T08:12:11.100Z,95783.53
2023-05-19T08:14:38.150Z,95786.88
2023-05-19T08:17:05.205Z,95782.22
2023-05-19T08:19:32.304Z,95780.41
2023-05-19T08:22:01.498Z,95777.44
2023-05-19T08:24:32.974Z,95774.06
2023-05-19T08:26:59.952Z,95769.81
2023-05-19T08:29:27.070Z,95764.13
2023-05-19T08:31:54.687Z,95769.97
2023-05-19T08:34:22.461Z,95766.41
2023-05-19T08:36:49.815Z,95766.78
2023-05-19T08:39:18.820Z,95767.59
2023-05-19T08:41:45.650Z,95765.28
2023-05-19T08:44:12.638Z,95756.50
2023-05-19T08:46:39.636Z,95763.06
2023-05-19T08:49:12.621Z,95768.47
2023-05-19T08:51:49.042Z,95761.00
2023-05-19T08:54:16.281Z,95764.91
2023-05-19T08:56:46.888Z,95760.00
2023-05-19T08:59:14.852Z,95759.50
2023-05-19T09:01:46.146Z,95751.75
2023-05-19T09:04:13.589Z,95751.47
2023-05-19T09:06:45.582Z,95754.88
2023-05-19T09:09:12.686Z,95747.66
2023-05-19T09:11:39.667Z,95751.59
2023-05-19T09:14:06.683Z,95748.22
2023-05-19T09:16:34.319Z,95748.75
2023-05-19T09:19:01.787Z,95744.03
2023-05-19T09:21:32.497Z,95757.47
2023-05-19T09:24:06.671Z,95752.47
2023-05-19T09:26:40.981Z,95745.88
2023-05-19T09:29:17.762Z,95758.50
2023-05-19T09:31:51.882Z,95749.16
2023-05-19T09:34:19.380Z,95754.81
2023-05-19T09:36:53.828Z,95758.44
2023-05-19T09:39:25.686Z,95760.53
2023-05-19T09:41:59.344Z,95758.94
2023-05-19T09:44:30.698Z,95748.38
2023-05-19T09:46:58.426Z,95756.19
2023-05-19T09:49:29.899Z,95746.00
2023-05-19T09:52:02.466Z,95752.13
2023-05-19T09:54:29.842Z,95747.69
2023-05-19T09:57:01.120Z,95748.69
2023-05-19T09:59:32.114Z,95743.44
2023-05-19T10:02:00.996Z,95744.06
2023-05-19T10:04:29.926Z,95746.13
2023-05-19T10:06:59.918Z,95734.47
2023-05-19T10:09:28.717Z,95743.03
2023-05-19T10:11:56.605Z,95741.25
2023-05-19T10:14:24.931Z,95742.06
2023-05-19T10:16:53.398Z,95739.84
2023-05-19T10:19:21.063Z,95749.78
2023-05-19T10:21:48.301Z,95734.69
2023-05-19T10:24:15.199Z,95741.97
2023-05-19T10:26:45.588Z,95734.81
2023-05-19T10:29:13.909Z,95747.47
2023-05-19T10:31:40.992Z,95743.06
2023-05-19T10:34:24.544Z,95733.28
2023-05-19T10:37:02.674Z,95739.84
2023-05-19T10:39:32.236Z,95741.84
2023-05-19T10:42:17.223Z,95735.09
2023-05-19T10:45:05.820Z,95744.38
2023-05-19T10:47:34.063Z,95737.53
2023-05-19T10:50:01.471Z,95736.00
2023-05-19T10:52:30.353Z,95733.09
2023-05-19T10:54:58.576Z,95735.19
2023-05-19T10:57:30.842Z,95743.00
2023-05-19T10:59:58.074Z,95739.41
2023-05-19T11:02:42.052Z,95743.78
2023-05-19T11:05:18.422Z,95745.41
2023-05-19T11:08:05.535Z,95742.03
2023-05-19T11:10:32.657Z,95743.72
2023-05-19T11:12:59.636Z,95743.06
2023-05-19T11:15:28.164Z,95747.81
2023-05-19T11:17:55.009Z,95741.22
2023-05-19T11:20:26.459Z,95738.53
2023-05-19T11:23:11.274Z,95738.06
2023-05-19T11:25:42.315Z,95747.53
2023-05-19T11:28:13.609Z,95731.56
2023-05-19T11:30:43.845Z,95737.41
2023-05-19T11:33:11.289Z,95735.78
2023-05-19T11:35:38.616Z,95734.00
2023-05-19T11:38:07.124Z,95741.38
2023-05-19T11:40:34.103Z,95732.88
2023-05-19T11:43:02.355Z,95730.63
2023-05-19T11:45:31.551Z,95721.50
2023-05-19T11:48:03.048Z,95728.25
2023-05-19T11:50:32.084Z,95721.84
2023-05-19T11:53:00.437Z,95734.13
2023-05-19T11:55:28.089Z,95719.47
2023-05-19T11:58:04.510Z,95724.69
2023-05-19T12:00:38.024Z,95728.16
2023-05-19T12:03:05.464Z,95718.81
2023-05-19T12:05:35.406Z,95714.78
2023-05-19T12:08:04.942Z,95717.94
2023-05-19T12:10:32.148Z,95724.72
2023-05-19T12:12:59.688Z,95715.91
2023-05-19T12:15:26.846Z,95713.94
2023-05-19T12:17:59.197Z,95726.38
2023-05-19T12:20:26.912Z,95710.13
2023-05-19T12:22:55.850Z,95705.75
2023-05-19T12:25:23.265Z,95716.78
2023-05-19T12:27:50.660Z,95712.94
2023-05-19T12:30:17.580Z,95711.59
2023-05-19T12:32:44.799Z,95713.03
2023-05-19T12:35:11.987Z,95705.34
2023-05-19T12:37:42.000Z,95711.91
2023-05-19T12:40:09.682Z,95711.69
2023-05-19T12:42:38.073Z,95707.19
2023-05-19T12:45:05.626Z,95706.88
2023-05-19T12:47:35.121Z,95699.31
2023-05-19T12:50:04.155Z,95699.78
2023-05-19T12:52:44.210Z,95699.66
2023-05-19T12:55:12.449Z,95713.59
2023-05-19T12:57:41.102Z,95713.97
2023-05-19T13:00:23.172Z,95710.78
2023-05-19T13:03:00.680Z,95711.38
2023-05-19T13:05:30.108Z,95707.84
2023-05-19T13:07:58.556Z,95712.88
2023-05-19T13:10:29.653Z,95707.53
2023-05-19T13:12:57.243Z,95705.63
2023-05-19T13:15:26.749Z,95724.16
2023-05-19T13:17:54.267Z,95707.72
2023-05-19T13:20:22.608Z,95700.19
2023-05-19T13:22:49.961Z,95702.19
2023-05-19T13:25:17.252Z,95695.78
2023-05-19T13:27:48.023Z,95699.22
2023-05-19T13:30:16.575Z,95701.81
2023-05-19T13:32:43.636Z,95704.94
2023-05-19T13:35:11.298Z,95703.09
2023-05-19T13:37:40.080Z,95698.59
2023-05-19T13:40:08.328Z,95697.06
2023-05-19T13:42:35.572Z,95688.66
2023-05-19T13:45:02.976Z,95697.44
2023-05-19T13:47:30.277Z,95701.69
2023-05-19T13:49:57.918Z,95695.38
2023-05-19T13:52:26.418Z,95703.31
2023-05-19T13:54:54.876Z,95706.78
2023-05-19T13:57:22.638Z,95697.34
2023-05-19T14:00:01.521Z,95713.00
2023-05-19T14:02:30.318Z,95691.97
2023-05-19T14:04:57.937Z,95705.81
2023-05-19T14:07:25.926Z,95701.97
2023-05-19T14:09:53.503Z,95703.03
2023-05-19T14:12:25.279Z,95706.09
2023-05-19T14:14:58.813Z,95707.34
2023-05-19T14:17:28.138Z,95707.19
2023-05-19T14:19:55.223Z,95701.09
2023-05-19T14:22:22.248Z,95705.72
2023-05-19T14:24:49.512Z,95701.47
2023-05-19T14:27:16.907Z,95704.88
2023-05-19T14:29:43.960Z,95698.94
2023-05-19T14:32:10.987Z,95701.47
2023-05-19T14:34:37.949Z,95697.66
2023-05-19T14:37:05.072Z,95713.59
2023-05-19T14:39:32.075Z,95702.59
2023-05-19T14:42:01.847Z,95716.41
2023-05-19T14:44:33.340Z,95706.66
2023-05-19T14:47:01.956Z,95715.25
2023-05-19T14:49:29.204Z,95708.53
2023-05-19T14:51:56.453Z,95719.81
2023-05-19T14:54:23.349Z,95708.97
2023-05-19T14:56:50.288Z,95701.63
2023-05-19T14:59:17.363Z,95711.19
2023-05-19T15:01:44.415Z,95708.66
2023-05-19T15:04:11.397Z,95702.66
2023-05-19T15:06:38.906Z,95711.66
2023-05-19T15:09:06.106Z,95709.13
2023-05-19T15:11:33.053Z,95715.06
2023-05-19T15:13:59.987Z,95703.66
2023-05-19T15:16:26.949Z,95715.72
2023-05-19T15:18:54.237Z,95713.66
2023-05-19T15:21:21.438Z,95703.03
2023-05-19T15:23:48.476Z,95712.88
2023-05-19T15:26:15.350Z,95711.00
2023-05-19T15:28:42.472Z,95701.34
2023-05-19T15:31:09.522Z,95703.13
2023-05-19T15:33:37.027Z,95694.94
2023-05-19T15:36:04.171Z,95700.47
2023-05-19T15:38:32.034Z,95693.41
2023-05-19T15:40:59.203Z,95692.59
2023-05-19T15:43:26.236Z,95697.13
2023-05-19T15:45:55.313Z,95685.06
2023-05-19T15:48:22.223Z,95681.66
2023-05-19T15:50:49.317Z,95688.31
2023-05-19T15:53:16.303Z,95682.44
2023-05-19T15:55:43.428Z,95676.44
2023-05-19T15:58:10.567Z,95676.44
2023-05-19T16:00:37.626Z,95681.34
2023-05-19T16:03:05.013Z,95676.16
2023-05-19T16:05:32.103Z,95682.94
2023-05-19T16:07:59.146Z,95680.31
2023-05-19T16:10:26.250Z,95682.47
2023-05-19T16:12:53.204Z,95682.97
2023-05-19T16:15:20.277Z,95683.56
2023-05-19T16:17:47.370Z,95671.63
2023-05-19T16:20:14.406Z,95677.88
2023-05-19T16:22:41.592Z,95675.78
2023-05-19T16:25:08.795Z,95674.47
2023-05-19T16:27:35.791Z,95674.47
2023-05-19T16:30:03.559Z,95671.78
2023-05-19T16:32:30.775Z,95666.34
2023-05-19T16:34:57.660Z,95663.66
2023-05-19T16:37:24.591Z,95675.16
2023-05-19T16:39:51.695Z,95670.00
2023-05-19T16:42:18.615Z,95668.38
2023-05-19T16:44:45.575Z,95669.16
2023-05-19T16:47:12.627Z,95662.06
2023-05-19T16:49:41.021Z,95660.91
2023-05-19T16:52:08.354Z,95653.69
2023-05-19T16:54:35.500Z,95656.56
2023-05-19T16:57:02.573Z,95659.56
2023-05-19T16:59:29.529Z,95649.13
2023-05-19T17:01:57.062Z,95662.22
2023-05-19T17:04:24.465Z,95656.22
2023-05-19T17:06:51.522Z,95658.31
2023-05-19T17:09:25.090Z,95652.06
2023-05-19T17:11:55.986Z,95655.72
2023-05-19T17:14:23.231Z,95667.75
2023-05-19T17:16:52.870Z,95662.69
2023-05-19T17:19:19.932Z,95656.94
2023-05-19T17:21:47.086Z,95661.63
2023-05-19T17:24:14.077Z,95658.09
2023-05-19T17:26:40.976Z,95664.72
2023-05-19T17:29:07.995Z,95663.19
2023-05-19T17:31:35.020Z,95662.44
2023-05-19T17:34:02.013Z,95666.03
2023-05-19T17:36:29.023Z,95666.28
2023-05-19T17:38:56.114Z,95656.47
2023-05-19T17:41:23.392Z,95661.69
2023-05-19T17:43:51.048Z,95670.44
2023-05-19T17:46:18.174Z,95665.53
2023-05-19T17:48:45.309Z,95675.63
2023-05-19T17:51:12.688Z,95658.50
2023-05-19T17:53:40.023Z,95667.22
2023-05-19T17:56:09.881Z,95662.56
2023-05-19T17:58:37.057Z,95668.84
2023-05-19T18:01:04.219Z,95663.13
2023-05-19T18:03:31.999Z,95666.97
2023-05-19T18:05:59.380Z,95665.34
2023-05-19T18:08:27.147Z,95665.88
2023-05-19T18:10:54.128Z,95657.16
2023-05-19T18:13:22.276Z,95663.97
2023-05-19T18:15:49.409Z,95663.97
2023-05-19T18:18:16.429Z,95655.78
2023-05-19T18:20:45.909Z,95658.00
2023-05-19T18:23:12.858Z,95661.25
2023-05-19T18:25:39.787Z,95665.88
2023-05-19T18:28:07.819Z,95667.53
2023-05-19T18:30:35.125Z,95665.09
2023-05-19T18:33:04.090Z,95652.56
2023-05-19T18:35:31.462Z,95658.28
2023-05-19T18:37:58.493Z,95654.75
2023-05-19T18:40:25.656Z,95648.72
2023-05-19T18:42:52.697Z,95653.91
2023-05-19T18:45:19.715Z,95649.00
2023-05-19T18:47:46.824Z,95652.00
2023-05-19T18:50:14.786Z,95661.25
2023-05-19T18:52:41.716Z,95656.59
2023-05-19T18:55:09.139Z,95655.22
2023-05-19T18:57:36.182Z,95651.66
2023-05-19T19:00:04.386Z,95653.59
2023-05-19T19:02:31.706Z,95662.00
2023-05-19T19:04:58.860Z,95659.00
2023-05-19T19:07:28.173Z,95659.00
2023-05-19T19:09:55.485Z,95656.31
2023-05-19T19:12:22.452Z,95670.97
2023-05-19T19:14:49.581Z,95664.66
2023-05-19T19:17:16.816Z,95664.13
2023-05-19T19:19:44.100Z,95665.25
2023-05-19T19:22:11.445Z,95669.84
2023-05-19T19:24:38.574Z,95663.03
2023-05-19T19:27:05.958Z,95673.09
2023-05-19T19:29:32.907Z,95667.66
2023-05-19T19:32:00.162Z,95667.13
2023-05-19T19:34:27.482Z,95671.47
2023-05-19T19:36:54.491Z,95669.25
2023-05-19T19:39:21.752Z,95671.13
2023-05-19T19:41:48.861Z,95678.47
2023-05-19T19:44:15.813Z,95677.63
2023-05-19T19:46:42.732Z,95679.22
2023-05-19T19:49:09.745Z,95671.88
2023-05-19T19:51:36.763Z,95677.56
2023-05-19T19:54:04.000Z,95680.81
2023-05-19T19:56:31.074Z,95681.88
2023-05-19T19:58:59.218Z,95675.88
2023-05-19T20:01:28.063Z,95686.47
2023-05-19T20:03:56.324Z,95681.31
2023-05-19T20:06:23.485Z,95692.44
2023-05-19T20:08:50.807Z,95682.63
2023-05-19T20:11:18.621Z,95679.94
2023-05-19T20:13:45.592Z,95685.41
2023-05-19T20:16:12.499Z,95675.88
2023-05-19T20:18:39.820Z,95672.88
2023-05-19T20:21:06.870Z,95676.13
2023-05-19T20:23:34.060Z,95676.13
2023-05-19T20:26:11.931Z,95675.28
2023-05-19T20:28:40.599Z,95686.34
2023-05-19T20:31:07.886Z,95678.72
2023-05-19T20:33:35.113Z,95683.09
2023-05-19T20:36:02.069Z,95677.38
2023-05-19T20:38:29.316Z,95692.56
2023-05-19T20:40:56.734Z,95681.19
2023-05-19T20:43:23.826Z,95687.69
2023-05-19T20:45:51.682Z,95677.63
2023-05-19T20:48:18.860Z,95681.72
2023-05-19T20:50:46.061Z,95681.47
2023-05-19T20:53:13.086Z,95680.31
2023-05-19T20:55:40.217Z,95689.53
2023-05-19T20:58:07.141Z,95675.13
2023-05-19T21:00:34.187Z,95682.72
2023-05-19T21:03:02.011Z,95679.72
2023-05-19T21:05:29.207Z,95679.47
2023-05-19T21:07:56.482Z,95675.94
2023-05-19T21:10:23.634Z,95678.09
2023-05-19T21:12:50.689Z,95674.25
2023-05-19T21:15:17.639Z,95675.03
2023-05-19T21:17:44.625Z,95668.50
2023-05-19T21:20:11.889Z,95665.81
2023-05-19T21:22:38.930Z,95662.34
2023-05-19T21:25:06.579Z,95668.31
2023-05-19T21:27:35.675Z,95663.41
2023-05-19T21:30:02.986Z,95663.41
2023-05-19T21:32:30.667Z,95669.88
2023-05-19T21:34:57.717Z,95662.28
2023-05-19T21:37:24.861Z,95664.16
2023-05-19T21:39:51.779Z,95666.13
2023-05-19T21:42:18.876Z,95657.41
2023-05-19T21:44:45.862Z,95663.94
2023-05-19T21:47:12.763Z,95649.81
2023-05-19T21:49:40.804Z,95659.41
2023-05-19T21:52:08.092Z,95667.28
2023-05-19T21:54:35.111Z,95656.13
2023-05-19T21:57:02.696Z,95659.94
2023-05-19T21:59:29.895Z,95661.31
2023-05-19T22:01:56.892Z,95657.75
2023-05-19T22:04:23.874Z,95657.75
2023-05-19T22:06:51.500Z,95659.63
2023-05-19T22:09:19.059Z,95651.50
2023-05-19T22:11:46.418Z,95647.75
2023-05-19T22:14:14.034Z,95644.88
2023-05-19T22:16:41.340Z,95651.94
2023-05-19T22:19:08.520Z,95643.25
2023-05-19T22:21:35.722Z,95646.97
2023-05-19T22:24:02.903Z,95638.78
2023-05-19T22:26:30.252Z,95642.63
2023-05-19T22:28:57.636Z,95640.25
2023-05-19T22:31:24.682Z,95635.91
2023-05-19T22:33:51.792Z,95632.09
2023-05-19T22:36:19.123Z,95627.16
2023-05-19T22:38:46.148Z,95632.03
2023-05-19T22:41:13.104Z,95629.88
2023-05-19T22:43:40.147Z,95640.81
2023-05-19T22:46:07.118Z,95632.38
2023-05-19T22:48:34.299Z,95635.09
2023-05-19T22:51:01.688Z,95634.00
2023-05-19T22:53:28.612Z,95631.03
2023-05-19T22:55:55.734Z,95628.03
2023-05-19T22:58:22.595Z,95622.91
2023-05-19T23:00:49.678Z,95628.09
2023-05-19T23:03:16.764Z,95625.88
2023-05-19T23:05:43.863Z,95623.94
2023-05-19T23:08:11.028Z,95620.16
2023-05-19T23:10:38.313Z,95621.84
2023-05-19T23:13:05.752Z,95619.38
2023-05-19T23:15:33.169Z,95614.78
2023-05-19T23:18:01.949Z,95605.28
2023-05-19T23:20:29.193Z,95603.38
2023-05-19T23:22:56.136Z,95601.75
2023-05-19T23:25:23.115Z,95598.25
2023-05-19T23:27:50.276Z,95597.44
2023-05-19T23:30:17.258Z,95590.34
2023-05-19T23:32:44.346Z,95593.59
2023-05-19T23:35:16.354Z,95600.41
2023-05-19T23:37:43.773Z,95600.94
2023-05-19T23:40:10.989Z,95596.31
2023-05-19T23:42:38.087Z,95588.16
2023-05-19T23:45:08.986Z,95591.44
2023-05-19T23:47:36.042Z,95591.97
2023-05-19T23:50:03.149Z,95595.25
2023-05-19T23:52:30.220Z,95593.06
2023-05-19T23:54:57.190Z,95593.34
2023-05-19T23:57:24.187Z,95587.63
2023-05-19T23:59:51.104Z,95593.88
